Ault, CO

11:45 AM MDT on September 18, 2014 (GMT -0600)
Hawkstone Eaton CO | Change Station
CLOSE
Current Station
Personal Weather Station
Location: Eaton, CO
Elevation: 4885 ft
Nearby Weather Stations

Elev 4885 ft 40.54 °N, 104.70 °W | Updated 13 minutes ago

Clear
Clear
78.9 °F
Feels Like 79 °F
N
0.0
Wind Variable Wind from South
Gusts 3.0 mph

Today
High -- | Low -- °F
--% Chance of Precip.
Yesterday
High -- | Low -- °F
Precip. -- in
6:42 AM 7:02 PM
Waning Crescent, 25% visible
Pressure 30.02 in
Visibility 10.0 miles
Clouds Clear
Heat Index 79 °F
Dew Point 52 °F
Humidity 39%
Rainfall 0.00 in
Snow Depth 0 in , 1 in , 0 in
UV 7 out of 12
Pollen 6.80 out of 12
Ozone Good
PM2.5 Good
Flu Activity Not available.
METAR KGXY 181735Z AUTO 20004KT 10SM CLR 26/09 A3002 RMK AO1

More Conditions Fewer Conditions

Pressure 30.02 in
Visibility 10.0 miles
Clouds Clear
Heat Index 79 °F
Dew Point 52 °F
Humidity 39%
Rainfall 0.00 in
Snow Depth 0 in , 1 in , 0 in
UV 7 out of 12
Pollen 6.80 out of 12
Ozone Good
PM2.5 Good
Flu Activity Not available.
METAR KGXY 181735Z AUTO 20004KT 10SM CLR 26/09 A3002 RMK AO1

More Conditions Fewer Conditions

10-Day Weather Forecast

Almanac

Astronomy

Sep. 18, 2014 Rise Set
Actual Time 6:42 AM MDT 7:02 PM MDT
Civil Twilight 6:15 AM MDT 7:30 PM MDT
Nautical Twilight 5:42 AM MDT 8:02 PM MDT
Astronomical Twilight 5:10 AM MDT 8:34 PM MDT
Moon 1:35 AM MDT 3:56 PM MDT
Length of Visible Light 13h 14m
Length of Day
12h 20m
Tomorrow will be 2m 40s shorter.
Waning Crescent, 25% of the Moon is Illuminated
Today
Waning Crescent
Sep 24
New
Oct 1
First Quarter
Oct 8
Full
Oct 15
Last Quarter

Today's Extremes

State Highs State Lows

Community

WunderPhotos

Upload Photos

1,754,409 photos uploaded!

Nearby

Air Quality

  Air Quality AQ Index Pollutant
Yesterday Good
OZONE
Yesterday Good
PM2.5
Current Good
OZONE
Current Good
PM2.5
Thursday Good
PM2.5
Thursday Good
OZONE

Snow Depth

Station Depth Elevation
Never Summer 0 in 10280 ft
Kiln 1 in 9600 ft
Rabbit Ears 0 in 9400 ft
Porphyry Creek 0 in 10760 ft
McClure Pass 0 in 9500 ft

Earthquake Activity

City Distance Mag. Time & Date
No recent earthquake activity has been reported nearby.
Minimum magnitude displayed is 2.5.

Coastal Water Temperatures

Place Temperature
No Stations Reporting

Nearby Weather Stations